KROC/ROC METAR and TAF weather

Enter ICAO airport designator
Station Type Date Time Source
KROC METAR 2022/06/30 00:54 UTC NOAA

KROC 300054Z 04005KT 10SM FEW015 FEW050 SCT120 BKN200 20/14 A3019 RMK AO2 SLP226 T02000144


Station Type Date Time Source
KROC Decoded METAR 2022/06/30 00:54 UTC NOAA

GREATER ROCHESTER INTERNATIONAL , NY, United States (KROC) 43-07N 077-41W 178M
Jun 29, 2022 - 08:54 PM EDT / 2022.06.30 0054 UTC
Wind: from the NE (040 degrees) at 6 MPH (5 KT):0
Visibility: 10 mile(s):0
Sky conditions: mostly cloudy
Temperature: 68.0 F (20.0 C)
Dew Point: 57.9 F (14.4 C)
Relative Humidity: 70%
Pressure (altimeter): 30.19 in. Hg (1022 hPa)
ob: KROC 300054Z 04005KT 10SM FEW015 FEW050 SCT120 BKN200 20/14 A3019 RMK AO2 SLP226 T02000144
cycle: 1

Station Type Date Time Source
KROC TAF 2022/06/29 21:09 UTC NOAA

TAF
AMD KROC 292106Z 2921/3018 32005KT P6SM BKN050
FM300000 31005KT P6SM SCT250
FM300300 VRB03KT P6SM FEW250

Example: see airport list